Time;durP1;ratioP1;P1;durP2;ratioP2;P2;SDS_P1;SDS_P2;PMS_P1;PMS_P2;Temp;Humidity;BMP_temperature;BMP_pressure;BME280_temperature;BME280_humidity;BME280_pressure;Samples;Min_cycle;Max_cycle;Signal;HPM_P1;HPM_P2
2021/11/04 00:00:16;;;;;;;29.87;16.90;;;8.70;99.90;;;;;;5021463;28;20462;-73
2021/11/04 00:02:44;;;;;;;24.70;12.50;;;8.70;99.90;;;;;;5012625;28;20882;-70
2021/11/04 00:05:11;;;;;;;28.00;10.50;;;8.70;99.90;;;;;;5011650;28;20545;-72
2021/11/04 00:07:39;;;;;;;24.00;8.83;;;8.60;99.90;;;;;;5006231;28;21138;-72
2021/11/04 00:10:09;;;;;;;30.13;11.73;;;8.60;99.90;;;;;;5003875;28;22455;-71
2021/11/04 00:12:38;;;;;;;21.47;10.67;;;8.60;99.90;;;;;;5009682;28;20572;-73
2021/11/04 00:15:06;;;;;;;33.90;14.00;;;8.60;99.90;;;;;;5016587;28;20623;-72
2021/11/04 00:17:33;;;;;;;22.60;10.87;;;8.60;99.90;;;;;;5005721;28;20550;-72
2021/11/04 00:20:00;;;;;;;31.30;12.00;;;8.60;99.90;;;;;;5007014;28;20484;-73
2021/11/04 00:22:27;;;;;;;26.60;13.80;;;8.60;99.90;;;;;;5012744;28;20468;-72
2021/11/04 00:24:54;;;;;;;21.70;11.63;;;8.60;99.90;;;;;;5008055;28;20469;-72
2021/11/04 00:27:21;;;;;;;25.50;11.57;;;8.70;99.90;;;;;;5014706;28;20457;-71
2021/11/04 00:29:49;;;;;;;27.20;13.67;;;8.70;99.90;;;;;;5012895;28;20578;-70
2021/11/04 00:32:16;;;;;;;35.23;13.37;;;8.70;99.90;;;;;;5013909;28;20515;-72
2021/11/04 00:34:43;;;;;;;25.43;11.83;;;8.70;99.90;;;;;;5018359;28;20578;-73
2021/11/04 00:37:10;;;;;;;34.57;12.00;;;8.80;99.90;;;;;;5017392;28;20480;-72
2021/11/04 00:39:37;;;;;;;22.37;11.77;;;8.60;99.90;;;;;;4998823;28;20476;-74
2021/11/04 00:42:05;;;;;;;31.73;11.57;;;8.70;99.90;;;;;;5006189;28;21051;-71
2021/11/04 00:44:32;;;;;;;25.20;11.47;;;8.80;99.90;;;;;;5025131;28;20898;-70
2021/11/04 00:47:00;;;;;;;33.87;12.50;;;8.80;99.90;;;;;;5025582;28;20444;-74
2021/11/04 00:49:27;;;;;;;27.50;13.00;;;8.80;99.90;;;;;;5021842;28;20484;-72
2021/11/04 00:51:54;;;;;;;29.33;11.00;;;8.60;99.90;;;;;;5022180;28;20466;-70
2021/11/04 00:54:21;;;;;;;33.53;12.27;;;8.70;99.90;;;;;;5030002;28;20487;-71
2021/11/04 00:56:48;;;;;;;22.50;12.50;;;8.80;99.90;;;;;;5028571;28;21354;-71
2021/11/04 00:59:15;;;;;;;23.70;10.30;;;8.70;99.90;;;;;;5025590;28;20535;-70
2021/11/04 01:01:42;;;;;;;24.80;11.47;;;8.80;99.90;;;;;;5031425;28;20638;-70
2021/11/04 01:04:11;;;;;;;26.33;9.90;;;8.90;99.90;;;;;;5027402;28;20467;-72
2021/11/04 01:06:38;;;;;;;24.00;11.67;;;8.70;99.90;;;;;;5027276;28;20517;-70
2021/11/04 01:09:04;;;;;;;20.47;10.70;;;8.70;99.90;;;;;;5026445;28;20486;-73
2021/11/04 01:11:32;;;;;;;25.20;11.17;;;8.50;99.90;;;;;;5028619;28;20541;-70
2021/11/04 01:13:59;;;;;;;18.10;10.63;;;8.40;99.90;;;;;;5020308;28;20464;-73
2021/11/04 01:16:27;;;;;;;21.10;8.57;;;8.40;99.90;;;;;;5022737;28;20602;-71
2021/11/04 01:18:54;;;;;;;28.47;11.97;;;8.40;99.90;;;;;;5031429;28;20557;-72
2021/11/04 01:21:22;;;;;;;26.73;11.17;;;8.60;99.90;;;;;;5029446;28;20543;-71
2021/11/04 01:23:49;;;;;;;20.50;12.17;;;8.60;99.90;;;;;;5019446;28;20875;-69
2021/11/04 01:26:16;;;;;;;27.30;13.37;;;8.60;99.90;;;;;;5024587;28;20667;-69
2021/11/04 01:28:44;;;;;;;18.13;9.00;;;8.70;99.90;;;;;;5027267;28;21045;-72
2021/11/04 01:31:11;;;;;;;30.00;14.33;;;8.60;99.90;;;;;;5015985;28;20459;-70
2021/11/04 01:33:38;;;;;;;23.03;10.53;;;8.70;99.90;;;;;;5018751;28;20983;-73
2021/11/04 01:36:05;;;;;;;17.77;9.77;;;8.70;99.90;;;;;;5026833;28;20550;-71
2021/11/04 01:38:33;;;;;;;36.63;12.60;;;8.70;99.90;;;;;;5022951;28;20491;-70
2021/11/04 01:41:00;;;;;;;30.17;12.57;;;8.80;99.90;;;;;;5008026;28;20458;-71
2021/11/04 01:43:28;;;;;;;34.17;12.80;;;8.60;99.90;;;;;;5012284;28;21046;-73
2021/11/04 01:45:55;;;;;;;25.93;13.10;;;8.60;99.90;;;;;;5012883;28;20467;-73
2021/11/04 01:48:22;;;;;;;21.03;10.43;;;8.60;99.90;;;;;;5018495;28;20470;-71
2021/11/04 01:50:49;;;;;;;25.27;10.90;;;8.60;99.90;;;;;;5004658;28;20510;-72
2021/11/04 01:53:19;;;;;;;24.83;10.93;;;8.60;99.90;;;;;;5006355;28;20550;-73
2021/11/04 01:55:47;;;;;;;30.03;12.60;;;8.60;99.90;;;;;;5018774;28;20839;-72
2021/11/04 01:58:15;;;;;;;25.47;10.50;;;8.70;99.90;;;;;;5001990;28;20538;-72
2021/11/04 02:00:42;;;;;;;19.57;10.17;;;8.70;99.90;;;;;;5005101;28;20600;-72
2021/11/04 02:03:18;;;;;;;27.20;13.40;;;8.50;99.90;;;;;;5014888;28;20497;-70
2021/11/04 02:05:51;;;;;;;24.53;10.70;;;8.50;99.90;;;;;;5009915;28;20513;-74
2021/11/04 02:08:23;;;;;;;34.80;12.50;;;8.50;99.90;;;;;;5006621;28;20487;-74
2021/11/04 02:10:55;;;;;;;22.07;12.00;;;8.60;99.90;;;;;;5013526;28;20540;-73
2021/11/04 02:13:28;;;;;;;18.40;9.27;;;8.50;99.90;;;;;;5005593;28;20535;-73
2021/11/04 02:15:59;;;;;;;24.30;11.30;;;8.40;99.90;;;;;;5003461;28;20485;-70
2021/11/04 02:18:29;;;;;;;34.33;14.30;;;8.50;99.90;;;;;;5012288;28;20521;-74
2021/11/04 02:21:05;;;;;;;23.97;11.60;;;8.50;99.90;;;;;;4997954;28;20592;-72
2021/11/04 02:23:39;;;;;;;23.43;10.17;;;8.60;99.90;;;;;;4998418;28;20498;-72
2021/11/04 02:26:09;;;;;;;27.77;12.37;;;8.50;99.90;;;;;;5011512;28;20956;-71
2021/11/04 02:28:39;;;;;;;29.70;10.67;;;8.50;99.90;;;;;;5012286;28;20570;-71
2021/11/04 02:31:08;;;;;;;18.53;11.60;;;8.50;99.90;;;;;;5001363;28;20557;-72
2021/11/04 02:33:36;;;;;;;22.10;11.30;;;8.40;99.90;;;;;;5012015;28;20548;-70
2021/11/04 02:36:03;;;;;;;29.40;10.73;;;8.40;99.90;;;;;;5011050;28;20471;-69
2021/11/04 02:38:31;;;;;;;25.00;10.27;;;8.40;99.90;;;;;;5007495;28;20553;-69
2021/11/04 02:41:00;;;;;;;35.00;12.63;;;8.30;99.90;;;;;;5011636;28;22403;-75
2021/11/04 02:43:30;;;;;;;22.13;11.80;;;8.20;99.90;;;;;;5012095;28;20482;-71
2021/11/04 02:45:57;;;;;;;27.57;14.07;;;8.00;99.90;;;;;;5006142;28;20491;-72
2021/11/04 02:48:24;;;;;;;25.83;11.83;;;8.00;99.90;;;;;;5011648;28;20607;-72
2021/11/04 02:50:53;;;;;;;30.33;11.60;;;8.00;99.90;;;;;;5005891;28;20493;-71
2021/11/04 02:53:22;;;;;;;23.03;13.80;;;8.00;99.90;;;;;;5009009;28;20466;-72
2021/11/04 02:55:49;;;;;;;31.20;13.70;;;8.10;99.90;;;;;;5008541;28;20456;-73
2021/11/04 02:58:18;;;;;;;20.67;11.03;;;8.10;99.90;;;;;;5005298;28;20494;-72
2021/11/04 03:00:48;;;;;;;27.73;12.93;;;8.10;99.90;;;;;;4996132;28;21450;-72
2021/11/04 03:03:15;;;;;;;37.70;12.87;;;8.00;99.90;;;;;;5007453;28;20511;-72
2021/11/04 03:05:42;;;;;;;32.10;12.00;;;8.00;99.90;;;;;;5006065;28;20463;-72
2021/11/04 03:08:09;;;;;;;33.43;12.73;;;8.10;99.90;;;;;;5005552;28;21789;-71
2021/11/04 03:10:36;;;;;;;29.87;12.43;;;8.00;99.90;;;;;;5008919;28;21665;-71
2021/11/04 03:13:04;;;;;;;18.87;9.90;;;8.10;99.90;;;;;;5005626;28;20464;-73
2021/11/04 03:15:36;;;;;;;31.40;11.50;;;8.10;99.90;;;;;;5005324;28;20464;-73
2021/11/04 03:18:05;;;;;;;28.43;12.80;;;8.10;99.90;;;;;;5012112;28;20519;-72
2021/11/04 03:20:32;;;;;;;34.03;13.17;;;8.10;99.90;;;;;;5003415;28;20552;-72
2021/11/04 03:23:00;;;;;;;25.60;10.30;;;7.90;99.90;;;;;;5008141;28;20464;-73
2021/11/04 03:25:27;;;;;;;23.77;9.53;;;7.90;99.90;;;;;;5006086;28;20557;-72
2021/11/04 03:27:55;;;;;;;26.50;11.43;;;7.90;99.90;;;;;;5009159;28;20460;-73
2021/11/04 03:30:24;;;;;;;16.83;9.93;;;7.90;99.90;;;;;;5006574;28;20479;-70
2021/11/04 03:32:53;;;;;;;27.60;11.27;;;7.90;99.90;;;;;;5010732;28;20462;-71
2021/11/04 03:35:24;;;;;;;35.53;9.40;;;7.90;99.90;;;;;;5008599;28;20597;-70
2021/11/04 03:37:53;;;;;;;28.20;13.50;;;8.00;99.90;;;;;;5009008;28;20796;-74
2021/11/04 03:40:20;;;;;;;31.77;13.27;;;8.00;99.90;;;;;;5008560;28;20444;-71
2021/11/04 03:42:49;;;;;;;21.60;11.00;;;8.00;99.90;;;;;;5003889;28;20487;-70
2021/11/04 03:45:17;;;;;;;26.87;13.47;;;8.00;99.90;;;;;;5010105;28;20466;-70
2021/11/04 03:47:45;;;;;;;27.53;11.20;;;7.90;99.90;;;;;;5010795;28;20479;-71
2021/11/04 03:50:14;;;;;;;22.90;11.63;;;7.90;99.90;;;;;;5007703;28;20464;-70
2021/11/04 03:52:43;;;;;;;25.00;12.20;;;7.90;99.90;;;;;;5006098;28;20463;-71
2021/11/04 03:55:12;;;;;;;29.03;11.53;;;7.90;99.90;;;;;;5006163;28;20439;-74
2021/11/04 03:57:40;;;;;;;55.10;15.13;;;7.90;99.90;;;;;;5008754;28;21467;-70
2021/11/04 04:00:09;;;;;;;31.83;13.63;;;7.80;99.90;;;;;;5007014;28;20460;-73
2021/11/04 04:02:36;;;;;;;31.40;12.07;;;7.80;99.90;;;;;;5000307;28;20569;-72
2021/11/04 04:05:03;;;;;;;21.47;8.73;;;7.80;99.90;;;;;;4999957;28;20514;-73
2021/11/04 04:07:32;;;;;;;34.90;13.73;;;7.70;99.90;;;;;;4997521;28;21552;-72
2021/11/04 04:10:01;;;;;;;28.97;12.43;;;7.70;99.90;;;;;;4985604;28;20619;-70
2021/11/04 04:12:28;;;;;;;26.03;11.87;;;7.80;99.90;;;;;;4990619;28;22028;-72
2021/11/04 04:14:55;;;;;;;26.30;9.60;;;7.90;99.90;;;;;;4979837;28;20462;-71
2021/11/04 04:17:23;;;;;;;27.63;13.20;;;7.90;99.90;;;;;;4985793;28;21862;-71
2021/11/04 04:19:50;;;;;;;37.70;13.70;;;7.80;99.90;;;;;;4987849;28;20490;-74
2021/11/04 04:22:18;;;;;;;24.73;9.60;;;7.70;99.90;;;;;;4992220;28;20928;-73
2021/11/04 04:24:46;;;;;;;25.73;9.63;;;7.80;99.90;;;;;;4987562;28;20467;-72
2021/11/04 04:27:15;;;;;;;30.80;11.70;;;7.80;99.90;;;;;;4975223;28;20467;-72
2021/11/04 04:29:42;;;;;;;26.20;9.03;;;7.70;99.90;;;;;;5002759;28;20541;-73
2021/11/04 04:32:09;;;;;;;27.17;13.43;;;7.80;99.90;;;;;;5002647;28;21822;-73
2021/11/04 04:34:36;;;;;;;30.07;13.60;;;8.00;99.90;;;;;;5011567;28;20815;-70
2021/11/04 04:37:04;;;;;;;29.17;10.23;;;7.90;99.90;;;;;;5013694;28;20750;-74
2021/11/04 04:39:33;;;;;;;33.47;12.90;;;8.00;99.90;;;;;;5014615;28;20540;-70
2021/11/04 04:42:00;;;;;;;26.40;10.80;;;8.00;99.90;;;;;;5025865;28;20468;-71
2021/11/04 04:44:29;;;;;;;27.27;13.40;;;7.90;99.90;;;;;;5035475;28;20598;-72
2021/11/04 04:46:56;;;;;;;20.57;9.20;;;8.00;99.90;;;;;;5039621;28;20500;-69
2021/11/04 04:49:24;;;;;;;21.77;12.00;;;7.80;99.90;;;;;;5030475;28;20508;-69
2021/11/04 04:51:51;;;;;;;34.87;13.50;;;7.70;99.90;;;;;;5037684;28;20524;-71
2021/11/04 04:54:18;;;;;;;34.30;14.80;;;7.60;99.90;;;;;;5034475;28;20459;-73
2021/11/04 04:56:45;;;;;;;27.57;11.63;;;7.70;99.90;;;;;;5030687;28;20472;-73
2021/11/04 04:59:12;;;;;;;21.33;10.23;;;7.90;99.90;;;;;;5035206;28;20582;-70
2021/11/04 05:01:40;;;;;;;30.40;13.07;;;7.80;99.90;;;;;;5033273;28;20518;-69
2021/11/04 05:04:07;;;;;;;30.40;10.70;;;7.80;99.90;;;;;;5032035;28;20425;-69
2021/11/04 05:06:34;;;;;;;40.23;12.23;;;7.70;99.90;;;;;;5030402;28;21180;-71
2021/11/04 05:09:01;;;;;;;28.23;11.87;;;7.70;99.90;;;;;;5027153;28;20578;-69
2021/11/04 05:11:29;;;;;;;31.33;10.50;;;7.80;99.90;;;;;;5033034;28;20515;-70
2021/11/04 05:13:56;;;;;;;21.03;9.23;;;7.80;99.90;;;;;;5026267;28;20689;-72
2021/11/04 05:16:22;;;;;;;25.33;7.50;;;7.70;99.90;;;;;;5032964;28;20569;-71
2021/11/04 05:18:51;;;;;;;29.13;9.43;;;7.80;99.90;;;;;;5036960;28;20505;-71
2021/11/04 05:21:18;;;;;;;41.17;11.73;;;7.80;99.90;;;;;;5041258;28;20482;-69
2021/11/04 05:23:45;;;;;;;23.73;11.13;;;7.70;99.90;;;;;;5039898;28;21065;-71
2021/11/04 05:26:12;;;;;;;22.83;9.83;;;7.60;99.90;;;;;;5026807;28;20462;-72
2021/11/04 05:28:39;;;;;;;28.57;11.50;;;7.60;99.90;;;;;;5017523;28;20483;-72
2021/11/04 05:31:06;;;;;;;22.30;11.97;;;7.60;99.90;;;;;;5029377;28;20541;-73
2021/11/04 05:33:32;;;;;;;29.13;11.70;;;7.50;99.90;;;;;;5033463;28;20584;-70
2021/11/04 05:36:01;;;;;;;35.77;12.73;;;7.50;99.90;;;;;;5030509;28;20486;-69
2021/11/04 05:38:28;;;;;;;28.73;10.60;;;7.60;99.90;;;;;;5034555;28;20513;-71
2021/11/04 05:40:55;;;;;;;36.23;12.30;;;7.60;99.90;;;;;;5055050;22;20606;-67
2021/11/04 05:43:22;;;;;;;18.80;8.60;;;7.70;99.90;;;;;;5016981;28;20536;-66
2021/11/04 05:45:48;;;;;;;34.47;13.60;;;7.80;99.90;;;;;;5013336;28;20552;-66
2021/11/04 05:48:15;;;;;;;29.57;11.03;;;7.80;99.90;;;;;;5018125;28;20495;-65
2021/11/04 05:50:42;;;;;;;24.97;9.70;;;7.90;99.90;;;;;;5015941;28;20508;-65
2021/11/04 05:53:11;;;;;;;23.80;13.40;;;7.80;99.90;;;;;;5014254;28;20464;-65
2021/11/04 05:55:38;;;;;;;30.80;16.30;;;7.70;99.90;;;;;;5014279;28;21048;-68
2021/11/04 05:58:05;;;;;;;35.03;15.10;;;7.70;99.90;;;;;;5023734;28;21025;-67
2021/11/04 06:00:32;;;;;;;28.67;11.20;;;7.70;99.90;;;;;;5024119;28;20491;-67
2021/11/04 06:02:59;;;;;;;32.93;12.67;;;7.70;99.90;;;;;;5026389;28;20448;-67
2021/11/04 06:05:26;;;;;;;36.70;12.77;;;7.80;99.90;;;;;;5023359;28;20511;-68
2021/11/04 06:07:53;;;;;;;24.37;13.63;;;7.70;99.90;;;;;;5026606;28;20463;-67
2021/11/04 06:10:21;;;;;;;38.27;14.50;;;7.60;99.90;;;;;;5029724;28;20461;-66
2021/11/04 06:12:48;;;;;;;29.50;10.80;;;7.70;99.90;;;;;;5024858;28;20551;-68
2021/11/04 06:15:16;;;;;;;19.90;11.00;;;7.70;99.90;;;;;;5021060;28;20460;-67
2021/11/04 06:17:43;;;;;;;25.13;11.57;;;7.70;99.90;;;;;;5021268;28;20515;-66
2021/11/04 06:20:10;;;;;;;29.27;10.57;;;7.70;99.90;;;;;;5010949;28;20519;-66
2021/11/04 06:22:37;;;;;;;26.30;12.67;;;7.40;99.90;;;;;;5007662;28;20962;-66
2021/11/04 06:25:05;;;;;;;25.03;9.77;;;7.50;99.90;;;;;;5004301;28;20561;-66
2021/11/04 06:27:34;;;;;;;31.20;11.87;;;7.50;99.90;;;;;;5023769;28;21060;-66
2021/11/04 06:30:02;;;;;;;22.87;8.70;;;7.30;99.90;;;;;;5023428;28;21011;-67
2021/11/04 06:32:29;;;;;;;26.20;10.73;;;7.30;99.90;;;;;;5021306;28;20475;-66
2021/11/04 06:34:56;;;;;;;37.60;12.50;;;7.30;99.90;;;;;;5023352;28;20499;-67
2021/11/04 06:37:23;;;;;;;23.47;11.70;;;7.50;99.90;;;;;;5025265;28;20976;-67
2021/11/04 06:39:50;;;;;;;33.27;11.60;;;7.50;99.90;;;;;;5022273;28;20480;-67
2021/11/04 06:42:17;;;;;;;27.90;9.73;;;7.40;99.90;;;;;;5023192;28;20570;-67
2021/11/04 06:44:45;;;;;;;36.23;13.03;;;7.40;99.90;;;;;;5026347;28;20479;-68
2021/11/04 06:47:19;;;;;;;31.83;11.77;;;7.40;99.90;;;;;;5026189;28;20451;-67
2021/11/04 06:49:51;;;;;;;19.50;9.30;;;7.30;99.90;;;;;;5033842;28;20528;-68
2021/11/04 06:52:24;;;;;;;30.73;11.50;;;7.40;99.90;;;;;;5035750;28;21783;-68
2021/11/04 06:54:54;;;;;;;30.27;10.40;;;7.40;99.90;;;;;;5029717;28;20459;-66
2021/11/04 06:57:24;;;;;;;28.30;11.67;;;7.40;99.90;;;;;;5028310;28;20456;-67
2021/11/04 06:59:57;;;;;;;28.13;11.57;;;7.40;99.90;;;;;;5024452;28;20508;-67
2021/11/04 07:02:32;;;;;;;25.70;9.67;;;7.40;99.90;;;;;;5024817;28;20945;-67
2021/11/04 07:05:00;;;;;;;31.63;10.30;;;7.40;99.90;;;;;;5024466;28;20459;-68
2021/11/04 07:07:27;;;;;;;14.83;9.53;;;7.40;99.90;;;;;;5023876;28;20456;-66
2021/11/04 07:09:56;;;;;;;17.40;8.20;;;7.30;99.90;;;;;;5023148;28;20452;-66
2021/11/04 07:12:22;;;;;;;27.13;9.80;;;7.30;99.90;;;;;;5021469;28;20503;-66
2021/11/04 07:14:49;;;;;;;28.00;10.17;;;7.30;99.90;;;;;;5025133;28;20557;-66
2021/11/04 07:17:18;;;;;;;20.27;10.13;;;7.30;99.90;;;;;;5024883;28;20461;-67
2021/11/04 07:19:47;;;;;;;27.20;9.77;;;7.30;99.90;;;;;;5022831;28;20485;-68
2021/11/04 07:22:23;;;;;;;31.67;13.20;;;7.40;99.90;;;;;;5022883;28;20809;-67
2021/11/04 07:25:02;;;;;;;20.73;10.00;;;7.50;99.90;;;;;;5022893;28;20472;-67
2021/11/04 07:27:36;;;;;;;16.13;7.30;;;7.60;99.90;;;;;;5022206;28;20468;-67
2021/11/04 07:30:07;;;;;;;27.93;14.13;;;7.50;99.90;;;;;;5024864;28;20463;-67
2021/11/04 07:32:35;;;;;;;24.60;11.10;;;7.40;99.90;;;;;;5030695;28;20532;-67
2021/11/04 07:35:04;;;;;;;14.20;8.03;;;7.30;99.90;;;;;;5025316;28;20934;-68
2021/11/04 07:37:33;;;;;;;21.87;11.27;;;7.20;99.90;;;;;;5025012;28;20457;-67
2021/11/04 07:40:00;;;;;;;23.40;9.07;;;7.30;99.90;;;;;;5025756;28;20579;-66
2021/11/04 07:42:27;;;;;;;24.03;10.20;;;7.20;99.90;;;;;;5025826;28;20484;-67
2021/11/04 07:44:56;;;;;;;28.93;10.50;;;7.10;99.90;;;;;;5027815;28;21003;-67
2021/11/04 07:47:23;;;;;;;43.60;10.70;;;7.20;99.90;;;;;;5028138;28;20505;-67
2021/11/04 07:49:52;;;;;;;25.03;10.67;;;7.30;99.90;;;;;;5026128;28;20427;-69
2021/11/04 07:52:19;;;;;;;23.10;11.73;;;7.40;99.90;;;;;;5026958;28;20476;-68
2021/11/04 07:54:46;;;;;;;25.87;10.30;;;7.30;99.90;;;;;;5026197;28;20446;-67
2021/11/04 07:57:14;;;;;;;17.50;9.57;;;7.30;99.90;;;;;;5024809;28;20532;-67
2021/11/04 07:59:41;;;;;;;24.03;9.30;;;7.40;99.90;;;;;;5023902;28;20571;-67
2021/11/04 08:02:08;;;;;;;27.80;12.23;;;7.40;99.90;;;;;;5026196;28;20469;-68
2021/11/04 08:04:35;;;;;;;17.53;8.57;;;7.40;99.90;;;;;;5027095;28;20445;-67
2021/11/04 08:07:04;;;;;;;16.30;10.37;;;7.40;99.90;;;;;;5027380;28;20835;-66
2021/11/04 08:09:31;;;;;;;20.63;8.10;;;7.40;99.90;;;;;;5025942;28;20459;-67
2021/11/04 08:11:59;;;;;;;25.27;8.17;;;7.30;99.90;;;;;;5022760;28;21054;-66
2021/11/04 08:14:27;;;;;;;22.40;8.67;;;7.30;99.90;;;;;;5026581;28;20996;-66
2021/11/04 08:16:54;;;;;;;15.70;7.93;;;7.50;99.90;;;;;;5023935;28;20453;-66
2021/11/04 08:19:21;;;;;;;37.07;13.60;;;7.70;99.90;;;;;;5025546;28;20480;-66
2021/11/04 08:21:48;;;;;;;11.00;4.57;;;7.70;99.90;;;;;;5026413;28;20468;-66
2021/11/04 08:24:16;;;;;;;19.53;8.57;;;7.80;99.90;;;;;;5026457;28;21308;-67
2021/11/04 08:26:43;;;;;;;21.20;11.17;;;7.70;99.90;;;;;;5026742;28;20448;-67
2021/11/04 08:29:10;;;;;;;23.40;10.57;;;7.70;99.90;;;;;;5021397;28;20468;-67
2021/11/04 08:31:37;;;;;;;22.03;9.70;;;7.60;99.90;;;;;;5025764;28;20476;-68
2021/11/04 08:34:04;;;;;;;22.37;11.07;;;7.60;99.90;;;;;;5026016;28;20460;-67
2021/11/04 08:36:31;;;;;;;25.20;9.50;;;7.70;99.90;;;;;;5027830;28;20541;-67
2021/11/04 08:38:58;;;;;;;14.30;9.03;;;7.70;99.90;;;;;;5026875;28;20971;-67
2021/11/04 08:41:26;;;;;;;20.97;11.13;;;7.50;99.90;;;;;;5026583;28;20504;-67
2021/11/04 08:43:53;;;;;;;19.57;9.30;;;7.70;99.90;;;;;;5026326;28;20849;-68
2021/11/04 08:46:21;;;;;;;21.97;8.13;;;7.70;99.90;;;;;;5026621;28;22542;-67
2021/11/04 08:48:48;;;;;;;17.63;10.53;;;7.90;99.90;;;;;;5024418;28;21088;-67
2021/11/04 08:51:15;;;;;;;18.00;10.60;;;7.90;99.90;;;;;;5024629;28;20546;-68
2021/11/04 08:53:42;;;;;;;21.67;8.93;;;8.00;99.90;;;;;;5025125;28;20937;-68
2021/11/04 08:56:09;;;;;;;15.90;7.20;;;8.10;99.90;;;;;;5025202;28;20804;-67
2021/11/04 08:58:38;;;;;;;19.60;10.27;;;8.40;99.90;;;;;;5027699;28;20502;-68
2021/11/04 09:01:07;;;;;;;22.60;7.57;;;8.50;99.90;;;;;;5024975;28;20554;-68
2021/11/04 09:03:34;;;;;;;24.10;9.87;;;8.40;99.90;;;;;;5025079;28;20856;-68
2021/11/04 09:06:02;;;;;;;16.27;10.80;;;8.40;99.90;;;;;;5025591;28;20456;-68
2021/11/04 09:08:30;;;;;;;18.97;9.10;;;8.40;99.90;;;;;;5026209;28;20452;-68
2021/11/04 09:10:57;;;;;;;12.80;7.37;;;8.40;99.90;;;;;;5021836;28;20473;-68
2021/11/04 09:13:24;;;;;;;30.33;13.20;;;8.40;99.90;;;;;;5025977;28;20499;-68
2021/11/04 09:15:53;;;;;;;11.37;6.73;;;8.30;99.90;;;;;;5025654;28;20862;-67
2021/11/04 09:18:20;;;;;;;19.80;7.40;;;8.10;99.90;;;;;;5027110;28;20449;-67
2021/11/04 09:20:48;;;;;;;18.70;9.30;;;8.00;99.90;;;;;;5023379;28;20585;-66
2021/11/04 09:23:15;;;;;;;25.97;10.20;;;8.20;99.90;;;;;;5024847;28;20452;-67
2021/11/04 09:25:43;;;;;;;18.60;10.90;;;8.20;99.90;;;;;;5024408;28;20484;-67
2021/11/04 09:28:10;;;;;;;21.30;9.30;;;8.40;99.90;;;;;;5023271;28;20510;-68
2021/11/04 09:30:37;;;;;;;28.73;8.67;;;8.50;99.90;;;;;;5024445;28;20495;-67
2021/11/04 09:33:05;;;;;;;20.77;7.83;;;8.60;99.90;;;;;;5023535;28;20464;-68
2021/11/04 09:35:35;;;;;;;20.83;9.07;;;8.60;99.90;;;;;;5026444;28;20487;-68
2021/11/04 09:38:02;;;;;;;17.10;8.57;;;8.30;99.90;;;;;;5022663;28;22067;-67
2021/11/04 09:40:30;;;;;;;18.87;8.90;;;8.30;99.90;;;;;;5022923;28;20477;-67
2021/11/04 09:42:57;;;;;;;21.30;7.90;;;8.30;99.90;;;;;;5024994;28;20555;-68
2021/11/04 09:45:26;;;;;;;24.60;9.73;;;8.50;99.90;;;;;;5025999;28;20464;-68
2021/11/04 09:47:53;;;;;;;16.43;8.43;;;8.50;99.90;;;;;;5024869;28;20563;-67
2021/11/04 09:50:22;;;;;;;19.80;9.27;;;8.50;99.90;;;;;;5023768;28;20484;-66
2021/11/04 09:52:54;;;;;;;25.73;10.83;;;8.30;99.90;;;;;;5023749;28;20436;-68
2021/11/04 09:55:22;;;;;;;31.07;10.70;;;8.20;99.90;;;;;;5025195;28;20481;-65
2021/11/04 09:57:50;;;;;;;38.33;15.17;;;8.40;99.90;;;;;;5023545;28;20444;-65
2021/11/04 10:00:18;;;;;;;31.33;9.90;;;8.60;99.90;;;;;;5023142;28;20488;-68
2021/11/04 10:02:46;;;;;;;30.77;10.20;;;8.60;99.90;;;;;;5026017;28;20866;-67
2021/11/04 10:05:15;;;;;;;29.40;9.43;;;8.70;99.90;;;;;;5026219;28;20448;-67
2021/11/04 10:07:45;;;;;;;27.70;10.90;;;8.80;99.90;;;;;;5023594;28;20575;-67
2021/11/04 10:10:13;;;;;;;23.33;8.53;;;8.70;99.90;;;;;;5024040;28;20460;-68
2021/11/04 10:12:59;;;;;;;17.53;8.00;;;8.50;99.90;;;;;;5021845;28;20441;-67
2021/11/04 10:15:27;;;;;;;22.70;11.90;;;8.50;99.90;;;;;;5024437;28;20566;-66
2021/11/04 10:18:13;;;;;;;24.07;10.67;;;8.70;99.90;;;;;;5024236;28;20488;-66
2021/11/04 10:20:41;;;;;;;21.20;9.60;;;8.80;99.90;;;;;;5023329;28;20575;-69
2021/11/04 10:23:11;;;;;;;27.37;10.67;;;8.60;99.90;;;;;;5025582;28;20810;-67
2021/11/04 10:25:39;;;;;;;27.00;11.50;;;8.70;99.90;;;;;;5025702;28;20490;-68
2021/11/04 10:28:22;;;;;;;20.33;12.07;;;8.60;99.90;;;;;;5020948;28;20522;-67
2021/11/04 10:30:49;;;;;;;28.83;13.20;;;8.50;99.90;;;;;;5020907;28;20484;-67
2021/11/04 10:33:21;;;;;;;28.73;10.43;;;8.60;99.90;;;;;;5024939;28;20526;-67
2021/11/04 10:35:56;;;;;;;27.43;10.53;;;8.80;99.90;;;;;;5023888;28;20471;-67
2021/11/04 10:38:40;;;;;;;30.10;12.33;;;9.00;99.90;;;;;;5022797;28;21044;-67
2021/11/04 10:41:10;;;;;;;23.80;10.60;;;9.10;99.90;;;;;;5022608;28;20921;-66
2021/11/04 10:43:39;;;;;;;30.90;11.27;;;9.30;99.90;;;;;;5022732;28;21004;-68
2021/11/04 10:46:10;;;;;;;18.40;10.17;;;9.20;99.90;;;;;;5020738;28;20570;-67
2021/11/04 10:48:39;;;;;;;23.17;11.70;;;9.40;99.90;;;;;;5023346;28;20445;-67
2021/11/04 10:51:07;;;;;;;31.57;11.37;;;9.40;99.90;;;;;;5025275;28;21385;-67
2021/11/04 10:53:35;;;;;;;26.97;11.43;;;9.40;99.90;;;;;;5026528;28;20548;-67
2021/11/04 10:56:20;;;;;;;18.30;10.70;;;9.40;99.90;;;;;;5022935;28;20448;-67
2021/11/04 10:59:03;;;;;;;26.10;12.73;;;9.40;99.90;;;;;;5022633;28;20461;-67
2021/11/04 11:01:32;;;;;;;17.70;10.27;;;9.40;99.90;;;;;;5023024;28;20951;-67
2021/11/04 11:04:03;;;;;;;20.70;9.30;;;9.40;99.90;;;;;;5023680;28;20481;-67
2021/11/04 11:06:34;;;;;;;28.43;10.57;;;9.50;99.90;;;;;;5024584;28;20444;-67
2021/11/04 11:09:06;;;;;;;29.83;9.07;;;9.40;99.90;;;;;;5021595;28;20447;-67
2021/11/04 11:11:33;;;;;;;23.53;9.53;;;9.20;99.90;;;;;;5020655;28;20583;-68
2021/11/04 11:14:00;;;;;;;30.63;9.90;;;9.30;99.90;;;;;;5025952;28;20472;-67
2021/11/04 11:16:28;;;;;;;24.57;8.93;;;9.30;99.90;;;;;;5029215;28;20506;-67
2021/11/04 11:19:00;;;;;;;20.00;10.17;;;9.30;99.90;;;;;;5026684;28;20862;-67
2021/11/04 11:21:30;;;;;;;20.00;9.57;;;9.40;99.90;;;;;;5025134;28;20556;-67
2021/11/04 11:24:00;;;;;;;20.53;9.40;;;9.50;99.90;;;;;;5028615;28;20448;-67
2021/11/04 11:26:29;;;;;;;23.47;9.20;;;9.70;99.90;;;;;;5027221;28;20448;-67
2021/11/04 11:28:57;;;;;;;23.17;10.77;;;9.60;99.90;;;;;;5025190;28;20792;-66
2021/11/04 11:31:27;;;;;;;27.20;10.87;;;9.70;99.90;;;;;;5026154;28;20474;-68
2021/11/04 11:34:23;;;;;;;22.43;11.53;;;9.80;99.90;;;;;;5027838;28;20449;-67
2021/11/04 11:37:17;;;;;;;26.07;12.47;;;9.80;99.90;;;;;;5026546;28;20479;-67
2021/11/04 11:39:47;;;;;;;22.00;10.63;;;9.80;99.90;;;;;;5024727;28;20981;-68
2021/11/04 11:42:25;;;;;;;24.43;11.63;;;9.90;99.90;;;;;;5025817;28;20476;-67
2021/11/04 11:44:56;;;;;;;16.67;8.57;;;9.90;99.90;;;;;;5026261;28;20442;-67
2021/11/04 11:47:37;;;;;;;22.47;9.30;;;9.90;99.90;;;;;;5027292;28;20500;-67
2021/11/04 11:50:22;;;;;;;22.30;9.07;;;10.00;99.90;;;;;;5024818;28;20452;-66
2021/11/04 11:52:51;;;;;;;29.53;11.20;;;10.00;99.90;;;;;;5025368;28;20448;-67
2021/11/04 11:55:20;;;;;;;28.73;10.20;;;10.30;99.90;;;;;;5026503;28;21593;-68
2021/11/04 11:58:28;;;;;;;25.13;10.23;;;10.20;99.90;;;;;;5026526;28;20440;-67
2021/11/04 12:00:59;;;;;;;22.13;12.13;;;10.30;99.90;;;;;;5025595;28;20488;-67
2021/11/04 12:03:50;;;;;;;25.97;11.40;;;10.40;99.90;;;;;;5025254;28;20491;-68
2021/11/04 12:06:52;;;;;;;25.93;13.03;;;10.70;99.90;;;;;;5026773;28;20468;-68
2021/11/04 12:09:41;;;;;;;18.87;6.80;;;10.80;99.90;;;;;;5026073;28;20567;-67
2021/11/04 12:12:29;;;;;;;21.10;8.83;;;10.70;99.90;;;;;;5033191;22;20578;-70
2021/11/04 12:15:04;;;;;;;24.67;11.23;;;10.80;99.90;;;;;;5022753;28;20502;-70
2021/11/04 12:17:31;;;;;;;23.07;12.40;;;10.90;99.90;;;;;;5029018;28;20447;-71
2021/11/04 12:20:00;;;;;;;23.40;11.63;;;10.90;99.90;;;;;;5026974;28;20572;-71
2021/11/04 12:22:29;;;;;;;26.47;11.43;;;11.00;99.90;;;;;;5027385;28;20980;-70
2021/11/04 12:24:57;;;;;;;24.53;9.03;;;10.90;99.90;;;;;;5027435;28;20479;-69
2021/11/04 12:27:26;;;;;;;27.93;11.73;;;10.70;99.90;;;;;;5024466;28;20541;-71
2021/11/04 12:29:55;;;;;;;29.63;13.30;;;10.50;99.90;;;;;;5028912;28;20535;-70
2021/11/04 12:32:26;;;;;;;16.97;9.30;;;10.50;99.90;;;;;;5029976;28;20650;-71
2021/11/04 12:35:00;;;;;;;17.87;8.67;;;10.30;99.90;;;;;;5023649;28;20555;-71
2021/11/04 12:37:30;;;;;;;21.10;10.60;;;10.20;99.90;;;;;;5024886;28;20563;-70
2021/11/04 12:39:58;;;;;;;24.40;11.37;;;10.30;99.90;;;;;;5022150;28;20973;-71
2021/11/04 12:42:25;;;;;;;19.87;10.27;;;10.40;99.90;;;;;;5020331;28;20492;-71
2021/11/04 12:44:52;;;;;;;27.07;12.93;;;10.50;99.90;;;;;;5024666;28;20515;-71
2021/11/04 12:47:20;;;;;;;29.50;11.37;;;10.60;99.90;;;;;;5023496;28;20447;-70